Time;durP1;ratioP1;P1;durP2;ratioP2;P2;SDS_P1;SDS_P2;PMS_P1;PMS_P2;Temp;Humidity;BMP_temperature;BMP_pressure;BME280_temperature;BME280_humidity;BME280_pressure;Samples;Min_cycle;Max_cycle;Signal;HPM_P1;HPM_P2
2022/11/05 00:10:30;;;;;;;6.80;3.55;;;;;;;18.55;53.92;101586.37;1702741;83;21507;-52
2022/11/05 00:18:29;;;;;;;5.00;3.22;;;;;;;18.54;53.54;101590.39;1750439;80;21035;-51
2022/11/05 00:20:56;;;;;;;6.03;3.00;;;;;;;18.54;53.23;101592.58;1752723;80;21069;-51
2022/11/05 00:26:10;;;;;;;7.78;3.37;;;;;;;18.54;53.40;101599.63;1757910;80;21085;-52
2022/11/05 00:31:11;;;;;;;8.03;3.25;;;;;;;18.51;53.56;101595.78;1676197;84;21055;-51
2022/11/05 00:33:41;;;;;;;5.97;3.50;;;;;;;18.48;53.49;101591.97;1662980;85;21136;-52
2022/11/05 00:36:10;;;;;;;6.35;3.15;;;;;;;18.47;53.69;101592.87;1660821;85;21057;-52
2022/11/05 00:38:36;;;;;;;7.72;3.45;;;;;;;18.47;53.82;101594.19;1668676;86;21717;-51
2022/11/05 00:41:04;;;;;;;5.83;3.45;;;;;;;18.47;54.11;101594.19;1657657;85;21110;-52
2022/11/05 00:46:16;;;;;;;5.37;2.98;;;;;;;18.47;54.42;101583.65;1657390;85;21102;-53
2022/11/05 00:51:27;;;;;;;8.15;3.17;;;;;;;18.49;53.77;101589.72;1671122;86;21056;-51
2022/11/05 00:53:54;;;;;;;9.43;3.60;;;;;;;18.48;53.78;101585.38;1662851;85;21053;-51
2022/11/05 00:56:22;;;;;;;7.58;2.87;;;;;;;18.50;54.14;101588.81;1668881;84;21615;-51
2022/11/05 00:58:48;;;;;;;5.87;3.12;;;;;;;18.49;53.79;101587.94;1683017;85;21109;-51
2022/11/05 01:01:15;;;;;;;6.08;3.27;;;;;;;18.49;53.45;101587.08;1671709;85;21076;-51
2022/11/05 01:03:42;;;;;;;6.92;3.12;;;;;;;18.50;53.36;101587.48;1671787;85;21154;-51
2022/11/05 01:06:14;;;;;;;7.08;2.98;;;;;;;18.50;53.51;101588.36;1661933;85;21077;-51
2022/11/05 01:08:43;;;;;;;5.50;2.90;;;;;;;18.50;53.38;101578.27;1622908;86;21574;-51
2022/11/05 01:11:31;;;;;;;5.50;2.80;;;;;;;18.50;53.58;101586.17;1623694;86;21561;-51
2022/11/05 01:13:41;;;;;;;7.75;2.67;;;;;;;18.50;53.42;101582.22;1621561;86;21507;-51
2022/11/05 01:16:09;;;;;;;7.17;3.00;;;;;;;18.50;53.25;101585.72;1610325;86;21081;-53
2022/11/05 01:18:37;;;;;;;6.53;3.30;;;;;;;18.50;53.15;101579.13;1626659;86;21071;-52
2022/11/05 01:21:12;;;;;;;5.22;3.08;;;;;;;18.51;53.22;101578.65;1616129;86;21074;-51
2022/11/05 01:23:39;;;;;;;6.22;3.02;;;;;;;18.51;53.37;101576.02;1620953;86;21606;-51
2022/11/05 01:26:05;;;;;;;10.40;3.70;;;;;;;18.52;53.40;101581.70;1610021;86;21044;-52
2022/11/05 01:28:32;;;;;;;6.65;3.00;;;;;;;18.50;53.27;101577.81;1661819;84;21549;-51
2022/11/05 01:30:59;;;;;;;7.50;3.58;;;;;;;18.51;53.19;101578.65;1660162;85;21224;-51
2022/11/05 01:33:25;;;;;;;6.87;3.15;;;;;;;18.53;53.14;101575.48;1649530;84;21078;-51
2022/11/05 01:35:52;;;;;;;5.47;3.00;;;;;;;18.53;53.19;101583.39;1672516;85;21573;-53
2022/11/05 01:38:19;;;;;;;5.60;2.90;;;;;;;18.54;53.22;101581.17;1660287;85;21156;-52
2022/11/05 01:40:46;;;;;;;5.50;3.05;;;;;;;18.53;53.04;101584.27;1669106;84;21098;-51
2022/11/05 01:43:18;;;;;;;7.92;3.40;;;;;;;18.53;52.98;101582.08;1660240;85;21108;-53
2022/11/05 01:45:49;;;;;;;5.15;2.87;;;;;;;18.53;53.34;101582.08;1672508;84;21089;-51
2022/11/05 01:48:26;;;;;;;8.00;3.52;;;;;;;18.54;53.83;101574.58;1664457;84;21194;-51
2022/11/05 01:51:02;;;;;;;5.47;3.42;;;;;;;18.53;54.08;101582.08;1647062;86;21054;-52
2022/11/05 01:53:43;;;;;;;7.30;3.30;;;;;;;18.50;54.32;101583.09;1639568;86;21023;-52
2022/11/05 01:56:17;;;;;;;4.92;3.05;;;;;;;18.48;54.13;101588.02;1597402;88;21115;-52
2022/11/05 01:58:51;;;;;;;7.70;3.30;;;;;;;18.45;53.86;101586.36;1592222;88;21098;-51
2022/11/05 02:01:18;;;;;;;7.12;3.08;;;;;;;18.43;53.86;101586.88;1568902;90;21093;-53
2022/11/05 02:03:45;;;;;;;7.40;2.92;;;;;;;18.43;53.98;101589.94;1536904;92;21562;-51
2022/11/05 02:06:14;;;;;;;5.92;2.70;;;;;;;18.43;53.82;101587.30;1561281;91;21161;-51
2022/11/05 02:09:01;;;;;;;6.45;2.72;;;;;;;18.42;53.70;101581.65;1606493;88;21093;-51
2022/11/05 02:11:27;;;;;;;6.55;3.12;;;;;;;18.42;53.77;101588.23;1623640;87;21069;-52
2022/11/05 02:13:54;;;;;;;6.58;3.20;;;;;;;18.43;53.91;101579.39;1581724;88;21069;-51
2022/11/05 02:16:37;;;;;;;13.62;3.77;;;;;;;18.43;53.54;101585.98;1613175;86;21060;-52
2022/11/05 02:19:47;;;;;;;6.37;2.67;;;;;;;18.42;53.53;101583.80;1542115;92;21095;-52
2022/11/05 02:22:55;;;;;;;5.60;3.15;;;;;;;18.44;53.59;101589.06;1525505;91;21138;-51
2022/11/05 02:25:53;;;;;;;10.08;3.65;;;;;;;18.45;53.79;101586.81;1536514;92;21572;-51
2022/11/05 02:28:59;;;;;;;4.12;2.92;;;;;;;18.45;53.81;101590.76;1535540;91;21094;-51
2022/11/05 02:31:51;;;;;;;7.58;3.42;;;;;;;18.45;53.70;101585.48;1534970;92;21064;-52
2022/11/05 02:34:56;;;;;;;6.28;3.35;;;;;;;18.44;54.34;101588.58;1603340;88;21106;-52
2022/11/05 02:37:42;;;;;;;6.05;3.02;;;;;;;18.44;54.74;101589.06;1601230;88;21937;-51
2022/11/05 02:40:18;;;;;;;7.20;3.35;;;;;;;18.46;54.96;101595.13;1589556;89;21094;-52
2022/11/05 02:43:02;;;;;;;6.72;3.02;;;;;;;18.48;55.17;101602.52;1586568;89;21078;-51
2022/11/05 02:46:13;;;;;;;11.22;3.47;;;;;;;18.48;55.23;101607.78;1543130;90;21607;-53
2022/11/05 02:49:03;;;;;;;5.92;3.35;;;;;;;18.49;55.09;101609.48;1652352;84;21127;-51
2022/11/05 02:51:53;;;;;;;9.80;3.90;;;;;;;18.48;55.08;101608.65;1663358;84;21104;-51
2022/11/05 02:54:43;;;;;;;6.90;3.25;;;;;;;18.48;55.21;101609.09;1659662;84;21112;-53
2022/11/05 02:57:10;;;;;;;7.33;3.62;;;;;;;18.46;55.21;101606.53;1745204;80;21076;-51
2022/11/05 02:59:36;;;;;;;9.28;3.72;;;;;;;18.46;55.28;101613.58;1765172;80;21039;-51
2022/11/05 03:02:03;;;;;;;9.83;3.37;;;;;;;18.47;55.28;101611.32;1768873;80;21023;-51
2022/11/05 03:04:31;;;;;;;5.42;3.10;;;;;;;18.49;55.22;101602.89;1751593;80;20991;-52
2022/11/05 03:07:26;;;;;;;8.28;3.60;;;;;;;18.50;55.25;101607.26;1749654;80;21486;-51
2022/11/05 03:10:35;;;;;;;12.80;3.80;;;;;;;18.51;55.59;101610.27;1757158;80;21684;-51
2022/11/05 03:13:25;;;;;;;7.25;3.98;;;;;;;18.51;55.62;101615.09;1759362;80;21515;-51
2022/11/05 03:16:02;;;;;;;8.50;3.30;;;;;;;18.52;55.92;101608.92;1733464;80;21030;-51
2022/11/05 03:18:46;;;;;;;8.70;3.90;;;;;;;18.53;55.95;101608.44;1689833;83;21124;-51
2022/11/05 03:21:20;;;;;;;7.08;3.33;;;;;;;18.52;55.80;101602.78;1691756;84;21059;-52
2022/11/05 03:23:58;;;;;;;5.28;3.50;;;;;;;18.52;55.79;101606.73;1631618;86;21039;-51
2022/11/05 03:26:34;;;;;;;5.72;3.52;;;;;;;18.51;55.26;101599.73;1617115;88;21309;-51
2022/11/05 03:29:12;;;;;;;6.08;3.60;;;;;;;18.51;54.95;101608.50;1615807;87;21050;-52
2022/11/05 03:31:39;;;;;;;5.42;3.30;;;;;;;18.50;54.76;101608.12;1615832;88;21179;-51
2022/11/05 03:34:06;;;;;;;7.15;4.17;;;;;;;18.54;54.81;101615.44;1619623;86;21101;-51
2022/11/05 03:36:40;;;;;;;6.60;3.90;;;;;;;18.53;54.64;101615.02;1633223;87;21118;-51
2022/11/05 03:39:11;;;;;;;5.83;3.62;;;;;;;18.54;54.63;101607.53;1616744;86;21108;-51
2022/11/05 03:41:42;;;;;;;;;;;;;;;18.55;54.59;101608.77;1626676;86;21595;-51
2022/11/05 03:44:10;;;;;;;7.05;3.60;;;;;;;18.57;54.38;101611.34;1618727;88;20095;-51
2022/11/05 03:46:44;;;;;;;10.65;4.95;;;;;;;18.57;54.24;101613.97;1619278;87;21029;-51
2022/11/05 03:49:13;;;;;;;8.15;4.45;;;;;;;18.56;54.04;101608.32;1616344;87;21085;-51
2022/11/05 03:51:58;;;;;;;6.45;3.95;;;;;;;18.56;53.67;101607.87;1613543;87;21132;-51
2022/11/05 03:54:24;;;;;;;6.10;3.50;;;;;;;18.55;53.41;101604.82;1573346;89;21601;-51
2022/11/05 03:57:06;;;;;;;5.60;4.12;;;;;;;18.57;53.57;101611.34;1605549;88;21075;-51
2022/11/05 03:59:40;;;;;;;11.97;4.33;;;;;;;18.59;53.42;101620.04;1597358;87;21536;-53
2022/11/05 04:02:07;;;;;;;7.83;3.62;;;;;;;18.59;53.35;101618.72;1619725;87;21049;-51
2022/11/05 04:04:34;;;;;;;5.37;3.30;;;;;;;18.58;53.49;101619.20;1688107;84;21109;-51
2022/11/05 04:15:16;;;;;;;9.28;3.70;;;;;;;18.60;53.17;101616.05;1741207;80;21041;-51
2022/11/05 04:17:42;;;;;;;9.23;3.95;;;;;;;18.60;53.16;101610.78;1752474;80;21079;-51
2022/11/05 04:25:46;;;;;;;8.90;3.40;;;;;;;18.61;53.66;101608.97;1742523;80;21046;-51
2022/11/05 04:28:14;;;;;;;4.65;3.60;;;;;;;18.61;53.53;101614.24;1755632;80;21098;-51
2022/11/05 04:30:44;;;;;;;7.42;3.87;;;;;;;18.62;53.34;101613.34;1754105;80;21093;-51
2022/11/05 04:33:14;;;;;;;11.03;4.20;;;;;;;18.61;53.29;101615.56;1746726;80;21129;-52
2022/11/05 04:35:46;;;;;;;8.65;4.28;;;;;;;18.61;53.44;101612.92;1762997;80;21518;-51
2022/11/05 04:38:17;;;;;;;7.00;3.92;;;;;;;18.60;53.36;101612.09;1756443;80;21065;-52
2022/11/05 04:40:44;;;;;;;8.48;3.92;;;;;;;18.59;53.38;101610.81;1756995;80;21026;-51
2022/11/05 04:43:13;;;;;;;6.62;4.00;;;;;;;18.60;53.47;101609.91;1754490;80;21074;-51
2022/11/05 04:45:40;;;;;;;6.30;3.62;;;;;;;18.59;53.30;101606.86;1713920;82;21138;-51
2022/11/05 04:48:07;;;;;;;10.55;3.72;;;;;;;18.57;53.21;101606.94;1711003;83;21050;-52
2022/11/05 04:50:35;;;;;;;8.28;4.28;;;;;;;18.55;53.03;101608.77;1710735;82;21053;-51
2022/11/05 04:53:02;;;;;;;12.98;4.15;;;;;;;18.54;52.93;101612.80;1713534;82;21054;-51
2022/11/05 04:55:28;;;;;;;7.30;3.85;;;;;;;18.53;52.70;101605.34;1706211;83;21090;-51
2022/11/05 04:57:55;;;;;;;9.83;3.92;;;;;;;18.53;52.85;101608.44;1694817;84;21066;-51
2022/11/05 05:00:22;;;;;;;12.07;4.00;;;;;;;18.50;53.10;101604.62;1705459;82;21119;-51
2022/11/05 05:02:49;;;;;;;8.23;3.92;;;;;;;18.48;52.99;101599.87;1718369;83;21085;-52
2022/11/05 05:05:15;;;;;;;9.93;4.58;;;;;;;18.46;53.20;101599.08;1699489;83;21519;-51
2022/11/05 05:07:42;;;;;;;7.33;3.87;;;;;;;18.43;52.99;101593.47;1698709;83;21518;-51
2022/11/05 05:10:10;;;;;;;6.65;3.47;;;;;;;18.42;53.06;101600.09;1688614;83;21143;-51
2022/11/05 05:12:37;;;;;;;7.87;3.92;;;;;;;18.40;53.19;101597.50;1724955;82;21077;-51
2022/11/05 05:15:07;;;;;;;6.72;3.80;;;;;;;18.41;53.46;101615.49;1703569;83;21046;-51
2022/11/05 05:17:34;;;;;;;9.58;3.40;;;;;;;18.42;53.35;101615.91;1710787;83;21127;-51
2022/11/05 05:22:53;;;;;;;7.70;3.90;;;;;;;18.41;52.99;101618.12;1691864;82;21514;-50
2022/11/05 05:25:20;;;;;;;9.28;3.62;;;;;;;18.47;52.76;101621.86;1692866;83;21051;-51
2022/11/05 05:27:48;;;;;;;9.88;3.75;;;;;;;18.47;52.45;101622.73;1674929;84;21038;-51
2022/11/05 05:30:15;;;;;;;12.63;3.70;;;;;;;18.48;52.56;101624.45;1717913;83;21058;-51
2022/11/05 05:32:43;;;;;;;9.88;3.70;;;;;;;18.49;52.67;101626.61;1707474;82;21011;-51
2022/11/05 05:35:09;;;;;;;7.47;3.65;;;;;;;18.50;52.27;101630.53;1709462;83;20994;-51
2022/11/05 05:37:36;;;;;;;9.23;3.60;;;;;;;18.53;51.98;101638.74;1712231;83;21070;-51
2022/11/05 05:40:03;;;;;;;7.85;3.42;;;;;;;18.55;51.77;101634.27;1722808;82;20990;-51
2022/11/05 05:42:31;;;;;;;7.35;3.52;;;;;;;18.56;51.63;101634.68;1740493;80;21519;-51
2022/11/05 05:44:58;;;;;;;4.30;3.17;;;;;;;18.56;51.68;101633.36;1763276;80;21010;-52
2022/11/05 05:47:25;;;;;;;8.13;3.12;;;;;;;18.58;51.71;101634.16;1754070;80;21044;-51
2022/11/05 05:49:51;;;;;;;7.47;3.00;;;;;;;18.60;52.12;101633.19;1762161;80;21055;-51
2022/11/05 05:52:18;;;;;;;13.05;3.70;;;;;;;18.62;51.99;101641.02;1759403;80;21034;-51
2022/11/05 05:54:45;;;;;;;7.15;3.72;;;;;;;18.63;52.07;101640.08;1754536;80;21546;-51
2022/11/05 05:57:11;;;;;;;7.37;3.08;;;;;;;18.65;52.13;101654.05;1755360;80;21012;-51
2022/11/05 05:59:38;;;;;;;9.18;4.15;;;;;;;18.68;52.29;101656.58;1753809;80;21110;-52
2022/11/05 06:02:04;;;;;;;4.60;3.10;;;;;;;18.70;52.37;101660.02;1771472;80;21479;-52
2022/11/05 06:04:31;;;;;;;8.25;3.87;;;;;;;18.73;51.95;101662.54;1759218;80;21043;-51
2022/11/05 06:06:57;;;;;;;5.90;3.62;;;;;;;18.74;52.14;101666.88;1766387;80;21558;-51
2022/11/05 06:09:24;;;;;;;7.83;3.22;;;;;;;18.74;52.14;101670.83;1767328;80;21081;-51
2022/11/05 06:11:51;;;;;;;10.28;3.58;;;;;;;18.75;52.05;101671.25;1763483;80;21089;-51
2022/11/05 06:14:17;;;;;;;5.85;2.92;;;;;;;18.75;52.37;101675.20;1754981;80;21508;-51
2022/11/05 06:16:45;;;;;;;3.80;3.20;;;;;;;18.78;52.37;101679.02;1754034;80;21558;-51
2022/11/05 06:19:13;;;;;;;6.03;3.45;;;;;;;18.80;52.35;101682.45;1757836;80;21070;-51
2022/11/05 06:21:40;;;;;;;5.00;3.35;;;;;;;18.82;52.17;101691.15;1752716;80;21033;-51
2022/11/05 06:24:07;;;;;;;8.28;3.98;;;;;;;18.84;52.36;101693.27;1757036;80;21102;-51
2022/11/05 06:26:41;;;;;;;7.58;3.42;;;;;;;18.86;52.71;101698.02;1753546;80;21046;-51
2022/11/05 06:29:03;;;;;;;9.33;3.52;;;;;;;18.90;53.18;101702.23;1751966;80;21030;-51
2022/11/05 06:31:30;;;;;;;8.33;3.45;;;;;;;18.92;52.94;101700.39;1765703;80;21034;-51
2022/11/05 06:33:56;;;;;;;8.00;3.30;;;;;;;18.94;52.00;101702.51;1753515;81;21475;-51
2022/11/05 06:36:23;;;;;;;7.70;3.70;;;;;;;18.96;51.88;101698.03;1761148;80;21003;-51
2022/11/05 06:38:50;;;;;;;6.60;3.50;;;;;;;18.99;52.02;101707.15;1767854;80;21600;-50
2022/11/05 06:41:16;;;;;;;11.50;3.83;;;;;;;19.02;52.05;101712.28;1754494;80;21061;-51
2022/11/05 06:43:43;;;;;;;12.28;3.95;;;;;;;19.04;51.96;101710.44;1756905;80;21129;-51
2022/11/05 06:46:10;;;;;;;9.25;3.47;;;;;;;19.06;51.68;101721.78;1770423;80;21620;-51
2022/11/05 06:48:39;;;;;;;4.65;3.15;;;;;;;19.07;51.25;101720.01;1752464;80;21551;-50
2022/11/05 06:51:07;;;;;;;6.33;3.00;;;;;;;19.07;51.00;101720.01;1760297;80;21058;-51
2022/11/05 06:53:35;;;;;;;6.50;2.90;;;;;;;19.07;50.92;101728.79;1752600;80;21038;-51
2022/11/05 06:56:04;;;;;;;4.40;2.25;;;;;;;19.07;51.35;101732.75;1762172;80;21019;-50
2022/11/05 06:58:31;;;;;;;7.67;2.72;;;;;;;19.08;51.14;101735.77;1763788;80;21572;-50
2022/11/05 07:01:07;;;;;;;4.72;2.80;;;;;;;19.10;51.11;101744.47;1729768;81;21006;-51
2022/11/05 07:03:35;;;;;;;6.80;2.87;;;;;;;19.10;50.75;101741.84;1745300;80;21018;-50
2022/11/05 07:06:02;;;;;;;4.60;2.67;;;;;;;19.12;50.45;101740.02;1750967;81;21035;-51
2022/11/05 07:08:33;;;;;;;9.83;3.70;;;;;;;19.12;50.10;101741.34;1752888;80;21028;-50
2022/11/05 07:11:00;;;;;;;12.40;2.83;;;;;;;19.11;49.70;101740.93;1747983;80;21526;-51
2022/11/05 07:13:27;;;;;;;6.40;2.70;;;;;;;19.11;49.71;101737.42;1753364;80;21043;-50
2022/11/05 07:15:55;;;;;;;5.28;2.55;;;;;;;19.10;49.64;101744.47;1755880;80;21034;-50
2022/11/05 07:18:23;;;;;;;6.95;2.85;;;;;;;19.08;49.81;101738.41;1751463;80;21025;-50
2022/11/05 07:20:50;;;;;;;5.37;2.83;;;;;;;19.08;50.37;101746.31;1769585;80;21549;-51
2022/11/05 07:23:19;;;;;;;6.78;2.92;;;;;;;19.08;50.60;101746.31;1755447;80;21108;-51
2022/11/05 07:25:45;;;;;;;4.83;3.10;;;;;;;19.08;51.03;101745.48;1763972;80;21783;-51
2022/11/05 07:28:13;;;;;;;5.05;2.85;;;;;;;19.08;51.26;101751.59;1746638;81;21022;-50
2022/11/05 07:30:40;;;;;;;7.08;3.27;;;;;;;19.10;51.65;101754.19;1755946;80;21070;-50
2022/11/05 07:33:07;;;;;;;11.78;3.87;;;;;;;19.13;51.87;101748.32;1757656;80;21462;-50
2022/11/05 07:35:34;;;;;;;6.80;3.10;;;;;;;19.17;52.34;101748.59;1764912;80;21010;-51
2022/11/05 07:38:02;;;;;;;5.05;3.05;;;;;;;19.20;52.55;101745.84;1782700;80;21034;-50
2022/11/05 07:40:30;;;;;;;12.05;3.50;;;;;;;19.23;52.63;101743.05;1755867;80;21034;-51
2022/11/05 07:43:00;;;;;;;10.65;3.37;;;;;;;19.28;53.00;101751.66;1750686;80;21546;-52
2022/11/05 07:45:28;;;;;;;9.88;3.77;;;;;;;19.32;52.82;101747.09;1764814;80;21049;-50
2022/11/05 07:47:59;;;;;;;9.10;3.95;;;;;;;19.36;52.96;101753.99;1756517;80;21105;-50
2022/11/05 07:50:28;;;;;;;9.10;4.33;;;;;;;19.40;52.87;101753.80;1754132;81;21157;-51
2022/11/05 07:53:06;;;;;;;7.50;3.33;;;;;;;19.42;52.83;101755.91;1759340;80;21027;-51
2022/11/05 07:55:33;;;;;;;7.37;3.87;;;;;;;19.44;53.05;101752.75;1752095;81;21058;-51
2022/11/05 07:58:01;;;;;;;8.30;4.15;;;;;;;19.46;53.17;101746.94;1764330;80;21042;-51
2022/11/05 08:00:27;;;;;;;10.45;4.12;;;;;;;19.49;53.41;101749.92;1771252;80;21057;-52
2022/11/05 08:03:10;;;;;;;7.40;3.85;;;;;;;19.51;53.21;101745.44;1764950;80;21557;-51
2022/11/05 08:05:37;;;;;;;;;;;;;;;19.48;53.54;101754.33;1739280;82;21501;-52
2022/11/05 08:08:08;;;;;;;9.33;4.17;;;;;;;19.49;53.73;101751.23;1759631;80;20416;-50
2022/11/05 08:10:36;;;;;;;9.38;4.72;;;;;;;19.51;54.15;101753.80;1749569;80;20983;-51
2022/11/05 08:13:05;;;;;;;10.18;4.33;;;;;;;19.53;54.58;101761.20;1760325;81;21038;-51
2022/11/05 08:15:33;;;;;;;8.55;4.25;;;;;;;19.54;54.83;101755.01;1754064;80;21011;-51
2022/11/05 08:18:05;;;;;;;6.15;4.12;;;;;;;19.55;55.07;101767.27;1745541;80;21512;-51
2022/11/05 08:20:33;;;;;;;11.43;4.60;;;;;;;19.54;55.22;101765.57;1763602;80;21052;-51
2022/11/05 08:23:01;;;;;;;11.63;4.28;;;;;;;19.55;55.49;101764.63;1764231;80;21100;-50
2022/11/05 08:25:28;;;;;;;12.28;4.37;;;;;;;19.55;55.66;101772.09;1757477;80;21163;-51
2022/11/05 08:27:58;;;;;;;11.08;4.40;;;;;;;19.58;55.73;101781.67;1752425;80;21073;-51
2022/11/05 08:30:25;;;;;;;13.53;4.73;;;;;;;19.57;55.54;101779.94;1728079;81;21039;-51
2022/11/05 08:33:09;;;;;;;9.48;4.35;;;;;;;19.57;55.51;101773.34;1720434;82;21092;-51
2022/11/05 08:35:36;;;;;;;8.63;4.78;;;;;;;19.59;55.46;101774.13;1693189;83;21026;-51
2022/11/05 08:38:05;;;;;;;6.42;3.50;;;;;;;19.60;55.59;101767.95;1692570;83;21021;-51
2022/11/05 08:40:33;;;;;;;9.20;4.33;;;;;;;19.63;55.58;101770.44;1689840;84;21470;-51
2022/11/05 08:43:04;;;;;;;7.67;4.17;;;;;;;19.64;55.41;101774.80;1702128;84;21018;-51
2022/11/05 08:45:30;;;;;;;6.97;3.77;;;;;;;19.63;55.27;101767.80;1693300;83;21034;-51
2022/11/05 08:48:09;;;;;;;7.72;4.58;;;;;;;19.62;55.30;101771.38;1679948;84;21094;-51
2022/11/05 08:50:36;;;;;;;9.35;4.20;;;;;;;19.64;55.19;101766.40;1671925;85;21732;-52
2022/11/05 08:53:04;;;;;;;5.65;4.00;;;;;;;19.66;55.17;101767.67;1653638;85;21026;-51
2022/11/05 08:55:30;;;;;;;6.85;4.87;;;;;;;19.69;54.89;101762.25;1636075;86;22350;-51
2022/11/05 08:57:58;;;;;;;7.03;3.95;;;;;;;19.72;54.90;101762.13;1621834;87;21083;-51
2022/11/05 09:00:26;;;;;;;7.40;4.47;;;;;;;19.75;54.78;101768.58;1612460;88;21107;-52
2022/11/05 09:02:54;;;;;;;4.87;3.42;;;;;;;19.76;54.70;101767.67;1610667;88;21604;-52
2022/11/05 09:05:20;;;;;;;11.97;4.45;;;;;;;19.76;54.44;101766.34;1623238;87;21557;-51
2022/11/05 09:07:48;;;;;;;8.08;4.70;;;;;;;19.77;54.48;101766.27;1632039;87;21003;-51
2022/11/05 09:10:15;;;;;;;9.40;4.40;;;;;;;19.75;54.60;101764.62;1625949;87;21062;-51
2022/11/05 09:12:41;;;;;;;9.43;4.65;;;;;;;19.76;54.65;101769.86;1627048;87;21066;-51
2022/11/05 09:15:09;;;;;;;7.97;3.80;;;;;;;19.76;54.63;101766.34;1607321;88;21570;-52
2022/11/05 09:17:38;;;;;;;11.97;4.58;;;;;;;19.79;54.82;101764.42;1627809;88;21170;-51
2022/11/05 09:20:07;;;;;;;12.00;4.42;;;;;;;19.82;54.73;101762.12;1571732;88;21112;-51
2022/11/05 09:22:33;;;;;;;11.40;4.03;;;;;;;19.82;54.67;101758.16;1621291;88;21071;-51
2022/11/05 09:25:02;;;;;;;12.98;4.62;;;;;;;19.84;54.78;101762.91;1617397;88;21126;-51
2022/11/05 09:27:29;;;;;;;12.05;4.08;;;;;;;19.86;55.00;101759.73;1617044;87;21074;-53
2022/11/05 09:29:55;;;;;;;8.60;4.08;;;;;;;19.89;54.65;101759.58;1615512;88;21078;-50
2022/11/05 09:32:22;;;;;;;8.35;4.47;;;;;;;19.91;54.68;101759.05;1631514;86;21737;-50
2022/11/05 09:34:49;;;;;;;10.08;3.92;;;;;;;19.92;54.67;101759.46;1753263;80;21027;-52
2022/11/05 09:37:16;;;;;;;13.40;5.42;;;;;;;19.94;54.58;101765.08;1766774;80;21046;-51
2022/11/05 09:39:44;;;;;;;7.22;3.92;;;;;;;19.95;54.54;101755.34;1726134;81;21640;-50
2022/11/05 09:42:12;;;;;;;13.13;4.47;;;;;;;19.95;54.38;101754.02;1720231;82;21677;-50
2022/11/05 09:44:48;;;;;;;9.65;3.85;;;;;;;19.97;54.43;101761.45;1730556;82;21566;-50
2022/11/05 09:47:28;;;;;;;5.60;3.47;;;;;;;19.96;54.29;101763.68;1661683;84;21123;-51
2022/11/05 09:49:56;;;;;;;10.72;3.85;;;;;;;19.95;54.33;101764.59;1585714;88;21144;-51
2022/11/05 09:52:28;;;;;;;7.72;3.50;;;;;;;19.94;54.50;101761.11;1602758;88;21074;-51
2022/11/05 09:54:56;;;;;;;8.45;3.92;;;;;;;19.94;54.46;101762.89;1543298;91;21034;-50
2022/11/05 09:57:30;;;;;;;8.08;3.87;;;;;;;19.93;54.39;101758.52;1538482;91;21173;-50
2022/11/05 10:00:01;;;;;;;7.53;4.15;;;;;;;19.91;54.59;101759.05;1503966;93;21099;-51
2022/11/05 10:02:39;;;;;;;12.28;4.40;;;;;;;19.91;54.73;101763.02;1570196;90;21696;-51
2022/11/05 10:05:08;;;;;;;9.58;4.15;;;;;;;19.90;54.80;101757.35;1545786;90;21146;-51
2022/11/05 10:07:58;;;;;;;12.23;3.95;;;;;;;19.92;54.85;101762.10;1531181;92;21072;-51
2022/11/05 10:10:39;;;;;;;9.60;4.65;;;;;;;19.93;54.69;101763.80;1443938;98;21175;-51
2022/11/05 10:13:27;;;;;;;9.05;4.15;;;;;;;19.93;54.93;101767.31;1450333;98;21125;-51
2022/11/05 10:16:34;;;;;;;6.67;3.27;;;;;;;19.95;55.02;101756.66;1364011;103;21152;-51
2022/11/05 10:19:08;;;;;;;9.55;3.70;;;;;;;19.96;54.73;101761.04;1395865;102;21207;-50
2022/11/05 10:21:36;;;;;;;6.87;3.37;;;;;;;19.97;54.51;101768.05;1393455;101;21126;-50
2022/11/05 10:24:12;;;;;;;8.38;3.85;;;;;;;19.96;54.55;101758.40;1381476;102;21211;-50
2022/11/05 10:26:39;;;;;;;11.33;4.00;;;;;;;19.95;54.90;101757.98;1351671;105;21212;-51
2022/11/05 10:29:05;;;;;;;10.40;3.85;;;;;;;19.95;54.86;101761.95;1344071;105;21188;-51
2022/11/05 10:31:35;;;;;;;11.57;3.90;;;;;;;19.94;54.78;101760.25;1349432;105;21150;-50
2022/11/05 10:34:04;;;;;;;7.50;3.60;;;;;;;19.92;54.68;101762.10;1346886;105;21226;-51
2022/11/05 10:36:35;;;;;;;8.93;4.12;;;;;;;19.91;54.96;101761.69;1339804;105;21170;-52
2022/11/05 10:40:01;;;;;;;9.40;4.20;;;;;;;19.96;54.90;101766.33;1315713;108;22174;-51
2022/11/05 10:43:50;;;;;;;8.98;4.25;;;;;;;19.98;54.83;101760.50;1299326;108;21766;-51
2022/11/05 10:46:37;;;;;;;11.05;4.30;;;;;;;19.98;55.04;101759.19;1294225;109;21214;-50
2022/11/05 10:49:24;;;;;;;10.05;4.20;;;;;;;19.97;55.18;101757.48;1264032;112;21353;-51
2022/11/05 10:51:56;;;;;;;8.70;4.20;;;;;;;19.96;55.14;101760.58;1313061;105;21621;-50
2022/11/05 10:54:27;;;;;;;13.15;4.40;;;;;;;19.97;55.55;101762.77;1311779;107;21597;-51
2022/11/05 10:56:54;;;;;;;10.13;4.40;;;;;;;19.98;55.46;101765.34;1354916;103;21238;-51
2022/11/05 10:59:26;;;;;;;9.55;4.25;;;;;;;19.99;55.40;101763.56;1404190;100;21187;-52
2022/11/05 11:02:04;;;;;;;6.87;3.77;;;;;;;19.99;55.17;101774.12;1422051;99;21107;-50
2022/11/05 11:04:31;;;;;;;7.05;4.05;;;;;;;19.99;55.29;101777.60;1441388;97;21549;-51
2022/11/05 11:06:58;;;;;;;7.97;3.77;;;;;;;19.99;55.14;101778.09;1462447;94;21111;-51
2022/11/05 11:09:29;;;;;;;9.45;4.03;;;;;;;19.97;55.21;101774.66;1487306;94;21659;-52
2022/11/05 11:12:24;;;;;;;12.75;4.95;;;;;;;19.98;55.25;101772.39;1496806;93;21541;-51
2022/11/05 11:15:17;;;;;;;8.25;3.70;;;;;;;19.97;55.20;101772.02;1561780;90;21062;-50
2022/11/05 11:17:44;;;;;;;13.28;4.00;;;;;;;19.95;55.29;101773.84;1554128;91;21085;-50
2022/11/05 11:20:24;;;;;;;9.43;4.35;;;;;;;19.93;55.42;101769.09;1549112;91;21053;-51
2022/11/05 11:23:13;;;;;;;11.38;3.98;;;;;;;19.92;55.63;101772.67;1524211;91;21123;-50
2022/11/05 11:25:59;;;;;;;8.85;4.25;;;;;;;19.94;55.75;101770.81;1530225;91;21604;-51
2022/11/05 11:28:32;;;;;;;9.38;3.98;;;;;;;19.95;55.71;101773.38;1528184;92;21148;-48
2022/11/05 11:31:13;;;;;;;11.05;4.65;;;;;;;19.96;55.77;101779.53;1537877;92;21132;-51
2022/11/05 11:33:43;;;;;;;13.65;5.25;;;;;;;19.97;55.69;101781.27;1524993;92;21090;-51
2022/11/05 11:36:10;;;;;;;14.53;4.95;;;;;;;19.96;55.87;101780.40;1563297;89;21116;-50
2022/11/05 11:38:37;;;;;;;13.55;4.17;;;;;;;19.97;55.97;101783.91;1581238;89;21608;-51
2022/11/05 11:41:27;;;;;;;9.70;4.10;;;;;;;19.96;55.79;101775.11;1549730;90;21091;-51
2022/11/05 11:44:00;;;;;;;8.97;3.97;;;;;;;19.96;55.65;101776.89;1574223;89;21096;-50
2022/11/05 11:46:26;;;;;;;12.65;4.33;;;;;;;19.96;55.50;101772.92;1586290;89;21771;-51
2022/11/05 11:48:54;;;;;;;5.67;3.90;;;;;;;19.96;55.30;101776.89;1574432;89;21164;-49
2022/11/05 11:51:39;;;;;;;10.45;4.20;;;;;;;19.97;55.40;101783.42;1555783;90;21101;-51
2022/11/05 11:54:07;;;;;;;14.80;4.75;;;;;;;19.97;55.22;101783.91;1539586;91;21104;-51
2022/11/05 11:56:45;;;;;;;7.58;4.00;;;;;;;19.97;55.33;101777.30;1525811;92;21150;-49
2022/11/05 11:59:21;;;;;;;9.18;4.35;;;;;;;19.97;55.22;101783.91;1522357;92;21098;-52
2022/11/05 12:02:09;;;;;;;14.73;4.78;;;;;;;19.97;55.23;101783.91;1439407;98;21114;-52
2022/11/05 12:05:07;;;;;;;9.18;4.33;;;;;;;19.98;55.29;101785.15;1473933;95;21180;-51
2022/11/05 12:08:00;;;;;;;16.62;4.60;;;;;;;20.00;55.09;101783.75;1464336;95;22285;-51
2022/11/05 12:10:51;;;;;;;8.60;4.17;;;;;;;20.02;54.97;101784.55;1438743;98;21127;-51
2022/11/05 12:13:26;;;;;;;10.78;4.37;;;;;;;20.03;54.91;101799.00;1470695;93;21113;-49
2022/11/05 12:16:07;;;;;;;5.78;3.92;;;;;;;20.03;54.72;101792.87;1477376;95;21170;-51
2022/11/05 12:19:04;;;;;;;9.68;4.25;;;;;;;20.04;54.67;101790.61;1432065;98;21183;-50
2022/11/05 12:21:55;;;;;;;11.12;4.00;;;;;;;20.06;54.70;101796.69;1386207;101;21152;-49
2022/11/05 12:24:55;;;;;;;16.10;4.62;;;;;;;20.07;54.59;101793.14;1375374;102;21203;-49
2022/11/05 12:27:42;;;;;;;10.40;4.15;;;;;;;20.08;54.43;101798.80;1369892;103;21211;-49
2022/11/05 12:30:18;;;;;;;9.03;3.92;;;;;;;20.07;54.31;101799.73;1385758;102;21164;-50
2022/11/05 12:32:56;;;;;;;6.75;4.17;;;;;;;20.04;54.33;101803.37;1335030;105;21651;-50